Time;durP1;ratioP1;P1;durP2;ratioP2;P2;SDS_P1;SDS_P2;PMS_P1;PMS_P2;Temp;Humidity;BMP_temperature;BMP_pressure;BME280_temperature;BME280_humidity;BME280_pressure;Samples;Min_cycle;Max_cycle;Signal;HPM_P1;HPM_P2
2023/08/09 00:01:18;;;;;;;1.42;0.50;;;;;;;;;;5048166;28;20037;-77
2023/08/09 00:03:44;;;;;;;0.70;0.70;;;;;;;;;;5062116;28;20020;-77
2023/08/09 00:06:10;;;;;;;0.75;0.60;;;;;;;;;;5049596;28;20400;-77
2023/08/09 00:08:36;;;;;;;0.38;0.35;;;;;;;;;;5054938;28;20024;-77
2023/08/09 00:11:02;;;;;;;0.45;0.40;;;;;;;;;;5057284;28;20487;-77
2023/08/09 00:13:28;;;;;;;0.80;0.55;;;;;;;;;;5060983;28;20025;-77
2023/08/09 00:15:54;;;;;;;0.60;0.50;;;;;;;;;;5063013;28;20017;-77
2023/08/09 00:18:20;;;;;;;0.50;0.50;;;;;;;;;;5048372;28;20032;-77
2023/08/09 00:20:46;;;;;;;0.52;0.52;;;;;;;;;;5051851;28;20033;-77
2023/08/09 00:23:14;;;;;;;0.60;0.60;;;;;;;;;;5060750;28;20039;-77
2023/08/09 00:25:40;;;;;;;0.40;0.40;;;;;;;;;;5060056;28;20139;-77
2023/08/09 00:28:06;;;;;;;0.30;0.30;;;;;;;;;;5059470;28;20728;-77
2023/08/09 00:30:32;;;;;;;0.50;0.50;;;;;;;;;;5057579;28;20548;-77
2023/08/09 00:32:58;;;;;;;0.55;0.55;;;;;;;;;;5052289;28;20472;-77
2023/08/09 00:35:24;;;;;;;0.73;0.68;;;;;;;;;;5062415;28;20017;-77
2023/08/09 00:37:50;;;;;;;1.27;0.60;;;;;;;;;;5057064;28;20536;-77
2023/08/09 00:40:15;;;;;;;2.22;0.85;;;;;;;;;;5057703;28;20016;-78
2023/08/09 00:42:42;;;;;;;0.43;0.43;;;;;;;;;;5054040;28;20783;-77
2023/08/09 00:45:08;;;;;;;0.50;0.50;;;;;;;;;;5061556;28;20541;-78
2023/08/09 00:47:36;;;;;;;0.95;0.68;;;;;;;;;;5055324;28;20025;-77
2023/08/09 00:50:02;;;;;;;0.35;0.35;;;;;;;;;;5066051;28;20418;-77
2023/08/09 00:52:28;;;;;;;0.38;0.38;;;;;;;;;;5059850;28;20111;-78
2023/08/09 00:54:54;;;;;;;0.40;0.40;;;;;;;;;;5060941;28;20052;-77
2023/08/09 00:57:20;;;;;;;0.60;0.60;;;;;;;;;;5056605;28;20021;-78
2023/08/09 00:59:46;;;;;;;0.60;0.60;;;;;;;;;;5062590;28;20472;-77
2023/08/09 01:02:12;;;;;;;0.60;0.50;;;;;;;;;;5051014;28;20036;-77
2023/08/09 01:04:39;;;;;;;0.77;0.40;;;;;;;;;;5051080;28;20471;-77
2023/08/09 01:07:23;;;;;;;2.15;0.40;;;;;;;;;;5050360;28;20035;-76
2023/08/09 01:10:01;;;;;;;0.60;0.60;;;;;;;;;;5056189;28;20074;-77
2023/08/09 01:12:29;;;;;;;0.40;0.40;;;;;;;;;;5060569;28;20081;-77
2023/08/09 01:14:58;;;;;;;0.88;0.68;;;;;;;;;;5054154;28;20037;-77
2023/08/09 01:17:25;;;;;;;0.40;0.40;;;;;;;;;;5060727;28;20014;-77
2023/08/09 01:19:55;;;;;;;0.40;0.40;;;;;;;;;;5053540;28;20039;-77
2023/08/09 01:22:24;;;;;;;0.30;0.30;;;;;;;;;;5057991;28;20088;-77
2023/08/09 01:24:50;;;;;;;1.33;0.77;;;;;;;;;;5061925;28;20497;-76
2023/08/09 01:27:16;;;;;;;0.43;0.43;;;;;;;;;;5057579;28;20028;-77
2023/08/09 01:29:43;;;;;;;0.50;0.32;;;;;;;;;;5055575;28;20546;-77
2023/08/09 01:32:09;;;;;;;0.55;0.40;;;;;;;;;;5064979;28;20033;-77
2023/08/09 01:34:37;;;;;;;0.68;0.50;;;;;;;;;;5052999;28;20510;-76
2023/08/09 01:37:04;;;;;;;0.20;0.20;;;;;;;;;;5065133;28;20019;-77
2023/08/09 01:39:33;;;;;;;0.30;0.30;;;;;;;;;;5067331;28;20024;-77
2023/08/09 01:41:59;;;;;;;0.38;0.38;;;;;;;;;;5058658;28;20698;-77
2023/08/09 01:44:26;;;;;;;0.50;0.50;;;;;;;;;;5056277;28;20032;-77
2023/08/09 01:46:52;;;;;;;1.00;0.52;;;;;;;;;;5052891;28;20544;-77
2023/08/09 01:49:21;;;;;;;0.52;0.40;;;;;;;;;;5055486;28;20029;-77
2023/08/09 01:51:47;;;;;;;0.75;0.45;;;;;;;;;;5052983;28;20021;-76
2023/08/09 01:54:14;;;;;;;0.63;0.40;;;;;;;;;;5062999;28;20029;-77
2023/08/09 01:56:40;;;;;;;0.52;0.52;;;;;;;;;;5059750;28;20495;-76
2023/08/09 01:59:08;;;;;;;0.63;0.50;;;;;;;;;;5052260;28;20043;-77
2023/08/09 02:01:34;;;;;;;1.05;0.50;;;;;;;;;;5053423;28;20115;-77
2023/08/09 02:04:00;;;;;;;0.30;0.30;;;;;;;;;;5056468;28;20043;-77
2023/08/09 02:06:26;;;;;;;0.50;0.50;;;;;;;;;;5058109;28;20372;-77
2023/08/09 02:08:53;;;;;;;0.70;0.52;;;;;;;;;;5066211;28;20048;-77
2023/08/09 02:11:19;;;;;;;0.45;0.40;;;;;;;;;;5051636;28;20041;-77
2023/08/09 02:13:46;;;;;;;0.55;0.50;;;;;;;;;;5052116;28;20048;-77
2023/08/09 02:16:12;;;;;;;0.30;0.30;;;;;;;;;;5062175;28;20025;-77
2023/08/09 02:18:38;;;;;;;0.63;0.50;;;;;;;;;;5056858;28;20035;-77
2023/08/09 02:21:05;;;;;;;0.52;0.47;;;;;;;;;;5056902;28;20046;-77
2023/08/09 02:23:31;;;;;;;0.65;0.60;;;;;;;;;;5049754;28;20033;-77
2023/08/09 02:25:57;;;;;;;0.30;0.30;;;;;;;;;;5053625;28;20037;-77
2023/08/09 02:28:23;;;;;;;0.52;0.52;;;;;;;;;;5057168;28;20110;-76
2023/08/09 02:30:49;;;;;;;0.50;0.50;;;;;;;;;;5050671;28;20028;-77
2023/08/09 02:33:15;;;;;;;0.30;0.30;;;;;;;;;;5057790;28;20024;-76
2023/08/09 02:35:55;;;;;;;0.40;0.40;;;;;;;;;;5064183;28;20115;-77
2023/08/09 02:38:21;;;;;;;0.40;0.40;;;;;;;;;;5057511;28;20028;-77
2023/08/09 02:40:49;;;;;;;0.55;0.45;;;;;;;;;;5058894;28;20025;-76
2023/08/09 02:43:15;;;;;;;0.65;0.40;;;;;;;;;;5067799;28;20115;-77
2023/08/09 02:45:41;;;;;;;0.35;0.35;;;;;;;;;;5061827;28;20028;-77
2023/08/09 02:48:08;;;;;;;0.57;0.45;;;;;;;;;;5051585;28;20063;-77
2023/08/09 02:50:34;;;;;;;0.57;0.40;;;;;;;;;;5051655;28;20592;-77
2023/08/09 02:53:01;;;;;;;0.50;0.50;;;;;;;;;;5061102;28;20028;-76
2023/08/09 02:55:27;;;;;;;0.40;0.40;;;;;;;;;;5060804;28;20017;-77
2023/08/09 02:57:53;;;;;;;0.60;0.60;;;;;;;;;;5050607;28;20035;-77
2023/08/09 03:00:19;;;;;;;0.50;0.38;;;;;;;;;;5047991;28;20029;-77
2023/08/09 03:02:45;;;;;;;0.40;0.40;;;;;;;;;;5046523;28;20039;-77
2023/08/09 03:05:11;;;;;;;0.30;0.30;;;;;;;;;;5066906;28;20036;-77
2023/08/09 03:07:37;;;;;;;0.40;0.40;;;;;;;;;;5062457;28;20025;-77
2023/08/09 03:10:04;;;;;;;0.50;0.50;;;;;;;;;;5047289;28;20037;-78
2023/08/09 03:12:30;;;;;;;0.40;0.40;;;;;;;;;;5058596;28;20021;-78
2023/08/09 03:14:56;;;;;;;0.40;0.40;;;;;;;;;;5054172;28;20028;-76
2023/08/09 03:17:22;;;;;;;0.82;0.45;;;;;;;;;;5049122;28;20025;-78
2023/08/09 03:19:49;;;;;;;0.57;0.57;;;;;;;;;;5046477;28;20025;-78
2023/08/09 03:22:16;;;;;;;0.50;0.47;;;;;;;;;;5055491;28;20056;-78
2023/08/09 03:24:41;;;;;;;0.98;0.40;;;;;;;;;;5056131;28;20020;-77
2023/08/09 03:27:07;;;;;;;0.52;0.52;;;;;;;;;;5060692;28;20031;-77
2023/08/09 03:29:33;;;;;;;0.35;0.35;;;;;;;;;;5050516;28;20029;-78
2023/08/09 03:31:59;;;;;;;0.40;0.40;;;;;;;;;;5055284;28;20035;-77
2023/08/09 03:34:25;;;;;;;0.60;0.40;;;;;;;;;;5050731;28;20471;-77
2023/08/09 03:36:51;;;;;;;1.08;0.50;;;;;;;;;;5060913;28;20029;-77
2023/08/09 03:39:17;;;;;;;0.73;0.50;;;;;;;;;;5060800;28;20111;-78
2023/08/09 03:41:43;;;;;;;0.30;0.30;;;;;;;;;;5061834;28;20016;-78
2023/08/09 03:44:09;;;;;;;0.20;0.20;;;;;;;;;;5062119;28;20838;-77
2023/08/09 03:46:36;;;;;;;0.52;0.30;;;;;;;;;;5049658;28;20033;-77
2023/08/09 03:49:02;;;;;;;0.85;0.70;;;;;;;;;;5050580;28;20032;-77
2023/08/09 03:51:29;;;;;;;0.40;0.40;;;;;;;;;;5057971;28;20029;-77
2023/08/09 03:53:55;;;;;;;0.40;0.40;;;;;;;;;;5053192;28;20029;-77
2023/08/09 03:56:21;;;;;;;0.30;0.30;;;;;;;;;;5057719;28;20588;-77
2023/08/09 03:58:47;;;;;;;0.30;0.30;;;;;;;;;;5049777;28;20029;-77
2023/08/09 04:01:13;;;;;;;0.40;0.40;;;;;;;;;;5054882;28;20025;-77
2023/08/09 04:03:39;;;;;;;0.47;0.47;;;;;;;;;;5053061;28;20044;-77
2023/08/09 04:06:05;;;;;;;0.75;0.57;;;;;;;;;;5067550;28;20024;-77
2023/08/09 04:08:31;;;;;;;0.75;0.50;;;;;;;;;;5052800;28;20025;-77
2023/08/09 04:10:59;;;;;;;0.55;0.50;;;;;;;;;;5062492;28;20034;-77
2023/08/09 04:13:25;;;;;;;0.43;0.43;;;;;;;;;;5057214;28;20021;-77
2023/08/09 04:15:51;;;;;;;0.25;0.25;;;;;;;;;;5066368;28;20059;-77
2023/08/09 04:18:17;;;;;;;1.60;0.52;;;;;;;;;;5058697;28;20036;-77
2023/08/09 04:20:45;;;;;;;0.45;0.40;;;;;;;;;;5060065;28;20106;-77
2023/08/09 04:23:12;;;;;;;0.32;0.32;;;;;;;;;;5060095;28;20033;-77
2023/08/09 04:25:38;;;;;;;0.50;0.43;;;;;;;;;;5068649;28;20032;-77
2023/08/09 04:28:04;;;;;;;0.55;0.55;;;;;;;;;;5064412;28;20032;-76
2023/08/09 04:30:30;;;;;;;3.03;0.60;;;;;;;;;;5055486;28;20020;-77
2023/08/09 04:32:56;;;;;;;0.30;0.30;;;;;;;;;;5064425;28;20544;-77
2023/08/09 04:35:23;;;;;;;0.52;0.50;;;;;;;;;;5055840;28;20040;-77
2023/08/09 04:37:49;;;;;;;0.32;0.25;;;;;;;;;;5058680;28;20083;-77
2023/08/09 04:40:15;;;;;;;0.38;0.25;;;;;;;;;;5050127;28;20445;-77
2023/08/09 04:42:41;;;;;;;0.70;0.60;;;;;;;;;;5050198;28;20037;-77
2023/08/09 04:45:09;;;;;;;0.52;0.52;;;;;;;;;;5062250;28;20064;-77
2023/08/09 04:47:35;;;;;;;0.32;0.32;;;;;;;;;;5059752;28;20045;-77
2023/08/09 04:50:03;;;;;;;0.60;0.47;;;;;;;;;;5056387;28;20028;-77
2023/08/09 04:52:29;;;;;;;0.55;0.55;;;;;;;;;;5059340;28;20039;-77
2023/08/09 04:54:55;;;;;;;0.45;0.45;;;;;;;;;;5062321;28;20027;-77
2023/08/09 04:57:21;;;;;;;0.52;0.40;;;;;;;;;;5052775;28;20034;-78
2023/08/09 04:59:47;;;;;;;0.85;0.60;;;;;;;;;;5060359;28;20040;-77
2023/08/09 05:02:13;;;;;;;2.70;0.50;;;;;;;;;;5057833;28;20119;-78
2023/08/09 05:04:39;;;;;;;0.22;0.22;;;;;;;;;;5054883;28;20638;-77
2023/08/09 05:07:05;;;;;;;0.40;0.40;;;;;;;;;;5065902;28;20025;-78
2023/08/09 05:09:32;;;;;;;0.50;0.50;;;;;;;;;;5054206;28;20109;-78
2023/08/09 05:11:58;;;;;;;0.50;0.30;;;;;;;;;;5056255;28;20038;-77
2023/08/09 05:14:24;;;;;;;0.50;0.35;;;;;;;;;;5059416;28;20021;-77
2023/08/09 05:16:51;;;;;;;0.63;0.40;;;;;;;;;;5050303;28;20033;-78
2023/08/09 05:19:17;;;;;;;0.40;0.40;;;;;;;;;;5058890;28;20490;-77
2023/08/09 05:21:43;;;;;;;0.28;0.28;;;;;;;;;;5062365;28;20102;-77
2023/08/09 05:24:08;;;;;;;1.25;0.60;;;;;;;;;;5054700;28;20029;-77
2023/08/09 05:26:34;;;;;;;0.38;0.32;;;;;;;;;;5052389;28;20063;-78
2023/08/09 05:29:00;;;;;;;0.52;0.40;;;;;;;;;;5060781;28;20028;-78
2023/08/09 05:31:26;;;;;;;0.30;0.30;;;;;;;;;;5060768;28;20021;-77
2023/08/09 05:33:56;;;;;;;0.45;0.40;;;;;;;;;;5064552;28;20025;-77
2023/08/09 05:36:22;;;;;;;0.40;0.40;;;;;;;;;;5062863;28;20048;-77
2023/08/09 05:38:49;;;;;;;1.10;0.40;;;;;;;;;;5060009;28;20484;-77
2023/08/09 05:41:15;;;;;;;0.88;0.88;;;;;;;;;;5060364;28;20518;-77
2023/08/09 05:43:41;;;;;;;1.00;0.55;;;;;;;;;;5056236;28;20108;-77
2023/08/09 05:46:07;;;;;;;0.70;0.40;;;;;;;;;;5054934;28;20029;-77
2023/08/09 05:48:33;;;;;;;0.32;0.32;;;;;;;;;;5056395;28;20052;-78
2023/08/09 05:50:59;;;;;;;2.30;0.38;;;;;;;;;;5057338;28;20031;-80
2023/08/09 05:53:25;;;;;;;1.02;0.63;;;;;;;;;;5059448;28;20024;-79
2023/08/09 05:55:52;;;;;;;0.38;0.38;;;;;;;;;;5053068;28;20040;-79
2023/08/09 05:58:20;;;;;;;0.50;0.50;;;;;;;;;;5065130;28;20032;-80
2023/08/09 06:00:46;;;;;;;0.52;0.50;;;;;;;;;;5049302;28;20104;-81
2023/08/09 06:03:12;;;;;;;0.40;0.40;;;;;;;;;;5050465;28;20029;-81
2023/08/09 06:05:38;;;;;;;2.05;0.57;;;;;;;;;;5050903;28;20604;-88
2023/08/09 06:08:04;;;;;;;0.40;0.40;;;;;;;;;;5052533;28;20085;-82
2023/08/09 06:10:30;;;;;;;0.40;0.40;;;;;;;;;;5055856;28;20027;-81
2023/08/09 06:12:56;;;;;;;0.45;0.38;;;;;;;;;;5061390;28;20020;-80
2023/08/09 06:15:22;;;;;;;0.40;0.40;;;;;;;;;;5053036;28;20021;-79
2023/08/09 06:17:48;;;;;;;0.30;0.30;;;;;;;;;;5059401;28;20391;-82
2023/08/09 06:20:14;;;;;;;0.30;0.30;;;;;;;;;;5062059;28;20036;-82
2023/08/09 06:22:41;;;;;;;0.40;0.40;;;;;;;;;;5065931;28;20048;-81
2023/08/09 06:25:07;;;;;;;0.52;0.47;;;;;;;;;;5048638;28;20052;-80
2023/08/09 06:27:34;;;;;;;0.45;0.45;;;;;;;;;;5069386;28;20031;-77
2023/08/09 06:30:00;;;;;;;0.35;0.35;;;;;;;;;;5052177;28;20298;-79
2023/08/09 06:32:27;;;;;;;1.17;0.50;;;;;;;;;;5054225;28;20033;-78
2023/08/09 06:34:52;;;;;;;0.68;0.55;;;;;;;;;;5049080;28;20021;-80
2023/08/09 06:37:18;;;;;;;0.50;0.50;;;;;;;;;;5061111;28;20361;-82
2023/08/09 06:39:44;;;;;;;0.90;0.63;;;;;;;;;;5056209;28;20111;-82
2023/08/09 06:42:12;;;;;;;0.60;0.60;;;;;;;;;;5058861;28;20044;-82
2023/08/09 06:44:38;;;;;;;0.40;0.40;;;;;;;;;;5048867;28;20043;-82
2023/08/09 06:47:04;;;;;;;0.28;0.28;;;;;;;;;;5052886;28;20020;-83
2023/08/09 06:49:30;;;;;;;0.40;0.40;;;;;;;;;;5049501;28;20028;-85
2023/08/09 06:51:58;;;;;;;1.50;0.70;;;;;;;;;;5066776;28;20024;-81
2023/08/09 06:54:24;;;;;;;0.65;0.32;;;;;;;;;;5067374;28;20432;-85
2023/08/09 06:56:50;;;;;;;0.40;0.40;;;;;;;;;;5055472;28;20044;-81
2023/08/09 06:59:16;;;;;;;0.70;0.70;;;;;;;;;;5058752;28;20033;-79
2023/08/09 07:01:44;;;;;;;1.55;0.43;;;;;;;;;;5047395;28;20029;-79
2023/08/09 07:04:10;;;;;;;3.30;0.73;;;;;;;;;;5060866;28;20032;-80
2023/08/09 07:06:36;;;;;;;0.65;0.50;;;;;;;;;;5055835;28;20021;-79
2023/08/09 07:09:02;;;;;;;0.45;0.45;;;;;;;;;;5051595;28;20027;-79
2023/08/09 07:11:28;;;;;;;0.40;0.40;;;;;;;;;;5052842;28;20359;-83
2023/08/09 07:13:54;;;;;;;0.82;0.38;;;;;;;;;;5056119;28;20035;-79
2023/08/09 07:16:20;;;;;;;2.55;1.15;;;;;;;;;;5061322;28;20024;-80
2023/08/09 07:18:46;;;;;;;0.85;0.50;;;;;;;;;;5054170;28;20020;-80
2023/08/09 07:21:12;;;;;;;1.38;0.73;;;;;;;;;;5053910;28;20047;-79
2023/08/09 07:23:38;;;;;;;0.40;0.40;;;;;;;;;;5059859;28;20033;-80
2023/08/09 07:26:04;;;;;;;0.60;0.60;;;;;;;;;;5054621;28;20151;-83
2023/08/09 07:28:30;;;;;;;0.57;0.50;;;;;;;;;;5066314;28;20036;-86
2023/08/09 07:30:56;;;;;;;1.17;0.70;;;;;;;;;;5054239;28;20028;-83
2023/08/09 07:33:22;;;;;;;0.77;0.50;;;;;;;;;;5054951;28;20021;-85
2023/08/09 07:35:51;;;;;;;0.65;0.52;;;;;;;;;;5059943;28;20025;-84
2023/08/09 07:38:17;;;;;;;0.73;0.60;;;;;;;;;;5064322;28;20091;-84
2023/08/09 07:40:43;;;;;;;0.73;0.73;;;;;;;;;;5052573;28;20484;-83
2023/08/09 07:43:09;;;;;;;0.47;0.47;;;;;;;;;;5060417;28;20024;-77
2023/08/09 07:45:35;;;;;;;1.58;0.70;;;;;;;;;;5049751;28;20024;-77
2023/08/09 07:48:05;;;;;;;0.77;0.60;;;;;;;;;;5046783;28;20039;-77
2023/08/09 07:50:31;;;;;;;4.75;0.80;;;;;;;;;;5057793;28;20490;-77
2023/08/09 07:52:57;;;;;;;1.17;0.73;;;;;;;;;;5047651;28;20268;-77
2023/08/09 07:55:25;;;;;;;2.15;0.75;;;;;;;;;;5047141;28;20017;-77
2023/08/09 07:57:50;;;;;;;0.73;0.55;;;;;;;;;;5047624;28;20166;-78
2023/08/09 08:00:17;;;;;;;0.75;0.75;;;;;;;;;;5058873;28;20716;-77
2023/08/09 08:02:47;;;;;;;0.25;0.25;;;;;;;;;;5067287;28;20025;-77
2023/08/09 08:05:13;;;;;;;0.77;0.40;;;;;;;;;;5067090;28;20052;-77
2023/08/09 08:07:40;;;;;;;0.60;0.60;;;;;;;;;;5067216;28;20547;-77
2023/08/09 08:10:10;;;;;;;0.30;0.30;;;;;;;;;;5056998;28;20063;-77
2023/08/09 08:12:37;;;;;;;3.15;0.70;;;;;;;;;;5047221;28;20025;-78
2023/08/09 08:15:03;;;;;;;0.60;0.43;;;;;;;;;;5066699;28;20107;-77
2023/08/09 08:17:29;;;;;;;0.90;0.52;;;;;;;;;;5053978;28;20048;-77
2023/08/09 08:19:55;;;;;;;0.40;0.40;;;;;;;;;;5055667;28;20040;-78
2023/08/09 08:22:21;;;;;;;2.72;0.60;;;;;;;;;;5052021;28;20053;-77
2023/08/09 08:24:48;;;;;;;2.78;0.30;;;;;;;;;;5047252;28;20369;-77
2023/08/09 08:27:14;;;;;;;0.30;0.30;;;;;;;;;;5047084;28;20036;-77
2023/08/09 08:29:40;;;;;;;0.90;0.70;;;;;;;;;;5046575;28;20021;-78
2023/08/09 08:32:06;;;;;;;0.60;0.50;;;;;;;;;;5050480;28;20048;-77
2023/08/09 08:34:32;;;;;;;2.13;0.57;;;;;;;;;;5048656;28;20516;-77
2023/08/09 08:36:58;;;;;;;0.40;0.40;;;;;;;;;;5046825;28;20031;-78
2023/08/09 08:39:24;;;;;;;3.45;0.50;;;;;;;;;;5046434;28;20120;-77
2023/08/09 08:41:51;;;;;;;0.30;0.30;;;;;;;;;;5048703;28;20121;-77
2023/08/09 08:44:17;;;;;;;1.70;0.57;;;;;;;;;;5046658;28;20122;-77
2023/08/09 08:46:43;;;;;;;0.50;0.50;;;;;;;;;;5046709;28;20032;-77
2023/08/09 08:49:17;;;;;;;0.40;0.40;;;;;;;;;;5047521;28;20055;-77
2023/08/09 08:51:47;;;;;;;0.30;0.30;;;;;;;;;;5055965;28;20086;-78
2023/08/09 08:54:15;;;;;;;0.70;0.70;;;;;;;;;;5069017;28;20024;-77
2023/08/09 08:56:41;;;;;;;0.90;0.40;;;;;;;;;;5069903;28;20028;-77
2023/08/09 08:59:07;;;;;;;1.23;0.43;;;;;;;;;;5063926;28;20479;-78
2023/08/09 09:01:33;;;;;;;0.38;0.38;;;;;;;;;;5064525;28;20070;-79
2023/08/09 09:03:59;;;;;;;1.63;0.60;;;;;;;;;;5070357;28;20032;-79
2023/08/09 09:06:25;;;;;;;0.45;0.40;;;;;;;;;;5070094;28;20364;-79
2023/08/09 09:08:55;;;;;;;3.22;0.68;;;;;;;;;;5063523;28;20060;-79
2023/08/09 09:11:22;;;;;;;0.93;0.38;;;;;;;;;;5059402;28;20078;-80
2023/08/09 09:13:50;;;;;;;0.80;0.50;;;;;;;;;;5050698;28;20036;-80
2023/08/09 09:16:16;;;;;;;2.85;0.40;;;;;;;;;;5050199;28;20208;-79
2023/08/09 09:18:44;;;;;;;0.30;0.30;;;;;;;;;;5049110;28;20063;-79
2023/08/09 09:21:10;;;;;;;0.45;0.40;;;;;;;;;;5055541;28;20044;-79
2023/08/09 09:23:37;;;;;;;0.63;0.47;;;;;;;;;;5048094;28;20031;-80
2023/08/09 09:26:10;;;;;;;0.40;0.40;;;;;;;;;;5051893;28;20021;-77
2023/08/09 09:28:41;;;;;;;0.40;0.40;;;;;;;;;;5059521;28;20032;-76
2023/08/09 09:31:07;;;;;;;0.90;0.67;;;;;;;;;;5065214;28;20021;-76
2023/08/09 09:33:34;;;;;;;0.90;0.68;;;;;;;;;;5069766;28;20494;-76
2023/08/09 09:36:00;;;;;;;0.57;0.57;;;;;;;;;;5052816;28;20055;-75
2023/08/09 09:38:26;;;;;;;0.60;0.60;;;;;;;;;;5051093;28;20546;-82
2023/08/09 09:40:53;;;;;;;0.68;0.68;;;;;;;;;;5048083;28;20029;-81
2023/08/09 09:43:19;;;;;;;4.25;0.65;;;;;;;;;;5059962;28;20106;-83
2023/08/09 09:45:46;;;;;;;0.88;0.43;;;;;;;;;;5061615;28;20123;-83
2023/08/09 09:48:19;;;;;;;0.95;0.70;;;;;;;;;;5064104;28;20068;-77
2023/08/09 09:50:45;;;;;;;2.15;0.43;;;;;;;;;;5063004;28;20075;-81
2023/08/09 09:53:15;;;;;;;0.50;0.43;;;;;;;;;;5059724;28;20020;-80
2023/08/09 09:55:42;;;;;;;1.60;0.50;;;;;;;;;;5055228;28;20056;-82
2023/08/09 09:58:08;;;;;;;4.45;0.75;;;;;;;;;;5065278;28;20031;-77
2023/08/09 10:00:34;;;;;;;0.50;0.28;;;;;;;;;;5051032;28;20041;-75
2023/08/09 10:03:04;;;;;;;2.10;0.30;;;;;;;;;;5055656;28;20484;-79
2023/08/09 10:05:38;;;;;;;0.38;0.38;;;;;;;;;;5063382;28;20070;-79
2023/08/09 10:08:09;;;;;;;1.13;0.40;;;;;;;;;;5065028;28;20027;-79
2023/08/09 10:10:36;;;;;;;1.13;0.30;;;;;;;;;;5052631;28;20806;-77
2023/08/09 10:13:04;;;;;;;1.02;0.93;;;;;;;;;;5055223;28;20082;-76
2023/08/09 10:15:39;;;;;;;0.40;0.40;;;;;;;;;;5058605;28;20547;-78
2023/08/09 10:18:10;;;;;;;0.30;0.30;;;;;;;;;;5058706;28;20090;-80
2023/08/09 10:20:36;;;;;;;;;;;;;;;;;;5053775;28;20486;-78
2023/08/09 10:23:02;;;;;;;0.20;0.20;;;;;;;;;;5064268;28;19956;-77
2023/08/09 10:25:42;;;;;;;0.40;0.40;;;;;;;;;;5064708;28;20029;-79
2023/08/09 10:28:11;;;;;;;1.48;0.20;;;;;;;;;;5066738;28;20032;-79
2023/08/09 10:30:48;;;;;;;0.95;0.55;;;;;;;;;;5053511;28;20029;-78
2023/08/09 10:33:18;;;;;;;1.08;0.43;;;;;;;;;;5061796;28;20028;-78
2023/08/09 10:35:50;;;;;;;1.17;0.50;;;;;;;;;;5056376;28;20029;-78
2023/08/09 10:38:18;;;;;;;0.38;0.38;;;;;;;;;;5076263;28;20526;-77
2023/08/09 10:40:51;;;;;;;0.47;0.47;;;;;;;;;;5050507;28;20020;-79
2023/08/09 10:43:18;;;;;;;0.43;0.30;;;;;;;;;;5060406;28;20020;-78
2023/08/09 10:45:45;;;;;;;0.98;0.50;;;;;;;;;;5077668;28;20055;-78
2023/08/09 10:48:23;;;;;;;0.40;0.30;;;;;;;;;;5056530;28;20021;-78
2023/08/09 10:51:07;;;;;;;0.38;0.38;;;;;;;;;;5064861;28;20025;-78
2023/08/09 10:53:52;;;;;;;0.38;0.38;;;;;;;;;;5059372;28;20498;-79
2023/08/09 10:56:34;;;;;;;0.80;0.50;;;;;;;;;;5053333;28;20020;-79
2023/08/09 10:59:05;;;;;;;0.75;0.68;;;;;;;;;;5049673;28;20110;-80
2023/08/09 11:01:31;;;;;;;0.52;0.52;;;;;;;;;;5057379;28;20078;-80
2023/08/09 11:03:58;;;;;;;2.80;0.80;;;;;;;;;;5059180;28;20029;-79
2023/08/09 11:06:33;;;;;;;0.32;0.32;;;;;;;;;;5064743;28;20031;-78
2023/08/09 11:09:27;;;;;;;0.70;0.40;;;;;;;;;;5057133;28;20048;-76
2023/08/09 11:11:53;;;;;;;6.75;0.50;;;;;;;;;;5057687;28;20047;-74
2023/08/09 11:14:19;;;;;;;1.90;0.70;;;;;;;;;;5059904;28;20246;-77
2023/08/09 11:16:46;;;;;;;0.98;0.38;;;;;;;;;;5050779;28;20020;-76
2023/08/09 11:19:16;;;;;;;0.90;0.38;;;;;;;;;;5058787;28;20080;-78
2023/08/09 11:21:43;;;;;;;2.72;0.40;;;;;;;;;;5054279;28;20481;-77
2023/08/09 11:24:10;;;;;;;0.20;0.20;;;;;;;;;;5062787;28;20047;-77
2023/08/09 11:26:36;;;;;;;0.30;0.30;;;;;;;;;;5048821;28;20128;-77
2023/08/09 11:29:05;;;;;;;0.20;0.20;;;;;;;;;;5054738;28;20033;-76
2023/08/09 11:31:39;;;;;;;0.52;0.50;;;;;;;;;;5050206;28;20029;-77
2023/08/09 11:34:06;;;;;;;0.43;0.40;;;;;;;;;;5060178;28;20077;-78
2023/08/09 11:36:32;;;;;;;0.40;0.40;;;;;;;;;;5065864;28;20107;-78
2023/08/09 11:38:58;;;;;;;0.77;0.47;;;;;;;;;;5060379;28;20060;-77
2023/08/09 11:41:25;;;;;;;0.25;0.25;;;;;;;;;;5069426;28;20033;-78
2023/08/09 11:43:51;;;;;;;0.50;0.40;;;;;;;;;;5059023;28;20089;-79
2023/08/09 11:46:24;;;;;;;2.13;0.60;;;;;;;;;;5058678;28;20684;-79
2023/08/09 11:48:51;;;;;;;2.22;0.40;;;;;;;;;;5048134;28;20072;-79
2023/08/09 11:51:20;;;;;;;1.10;0.35;;;;;;;;;;5068230;28;20052;-79
2023/08/09 11:53:48;;;;;;;2.33;0.60;;;;;;;;;;5063514;28;20048;-79
2023/08/09 11:56:16;;;;;;;0.40;0.40;;;;;;;;;;5066975;28;20025;-79
2023/08/09 11:58:44;;;;;;;1.40;0.60;;;;;;;;;;5061107;28;20082;-79
2023/08/09 12:01:13;;;;;;;1.35;0.50;;;;;;;;;;5049563;28;20017;-80
2023/08/09 12:03:40;;;;;;;0.85;0.60;;;;;;;;;;5062008;28;20123;-79
2023/08/09 12:06:06;;;;;;;1.58;0.57;;;;;;;;;;5069332;28;20016;-79
2023/08/09 12:08:33;;;;;;;0.75;0.70;;;;;;;;;;5057310;28;20028;-79
2023/08/09 12:10:59;;;;;;;0.50;0.50;;;;;;;;;;5054023;28;20033;-79
2023/08/09 12:13:25;;;;;;;1.08;0.63;;;;;;;;;;5064715;28;20490;-79
2023/08/09 12:15:51;;;;;;;0.82;0.60;;;;;;;;;;5057474;28;20021;-79
2023/08/09 12:18:17;;;;;;;0.50;0.40;;;;;;;;;;5057287;28;20029;-80
2023/08/09 12:20:43;;;;;;;0.95;0.77;;;;;;;;;;5071809;28;20052;-79
2023/08/09 12:23:09;;;;;;;1.85;0.60;;;;;;;;;;5064588;28;20033;-79
2023/08/09 12:25:36;;;;;;;1.17;0.40;;;;;;;;;;5062361;28;20036;-78
2023/08/09 12:28:03;;;;;;;0.45;0.43;;;;;;;;;;5065403;28;20578;-78
2023/08/09 12:30:29;;;;;;;2.08;0.50;;;;;;;;;;5069290;28;20082;-79
2023/08/09 12:32:55;;;;;;;1.17;0.60;;;;;;;;;;5069652;28;20720;-79
2023/08/09 12:35:21;;;;;;;2.72;0.50;;;;;;;;;;5058531;28;21166;-78
2023/08/09 12:37:49;;;;;;;3.10;0.50;;;;;;;;;;5081265;28;20035;-79
2023/08/09 12:40:15;;;;;;;0.43;0.38;;;;;;;;;;5075283;28;20031;-79
2023/08/09 12:42:41;;;;;;;0.55;0.30;;;;;;;;;;5069265;28;20033;-79
2023/08/09 12:45:08;;;;;;;1.05;0.43;;;;;;;;;;5082153;28;20028;-79
2023/08/09 12:47:34;;;;;;;0.47;0.47;;;;;;;;;;5072909;28;20491;-78
2023/08/09 12:50:00;;;;;;;0.52;0.40;;;;;;;;;;5072270;28;20037;-79
2023/08/09 12:52:26;;;;;;;1.60;0.32;;;;;;;;;;5053556;28;20024;-78
2023/08/09 12:54:52;;;;;;;0.52;0.30;;;;;;;;;;5079217;28;20031;-79
2023/08/09 12:57:18;;;;;;;1.65;0.50;;;;;;;;;;5065425;28;20365;-78
2023/08/09 12:59:45;;;;;;;0.45;0.43;;;;;;;;;;5061984;28;20048;-80
2023/08/09 13:02:11;;;;;;;1.00;0.50;;;;;;;;;;5055784;28;20028;-80
2023/08/09 13:04:37;;;;;;;0.93;0.55;;;;;;;;;;5081512;28;20480;-79
2023/08/09 13:07:03;;;;;;;0.40;0.40;;;;;;;;;;5059838;28;20464;-80
2023/08/09 13:09:29;;;;;;;0.40;0.40;;;;;;;;;;5055001;28;20801;-80
2023/08/09 13:12:06;;;;;;;1.17;0.52;;;;;;;;;;5074993;28;20037;-81
2023/08/09 13:14:32;;;;;;;0.30;0.30;;;;;;;;;;5065723;28;20040;-80
2023/08/09 13:16:58;;;;;;;0.52;0.52;;;;;;;;;;5066533;28;20055;-80
2023/08/09 13:19:24;;;;;;;0.65;0.22;;;;;;;;;;5066753;28;20029;-81
2023/08/09 13:21:50;;;;;;;0.63;0.40;;;;;;;;;;5074934;28;20048;-80
2023/08/09 13:24:16;;;;;;;0.80;0.40;;;;;;;;;;5062991;28;20035;-80
2023/08/09 13:26:42;;;;;;;0.28;0.28;;;;;;;;;;5052208;28;20024;-80
2023/08/09 13:29:07;;;;;;;1.13;0.60;;;;;;;;;;5053550;28;20063;-79
2023/08/09 13:31:33;;;;;;;0.85;0.30;;;;;;;;;;5065688;28;20021;-80
2023/08/09 13:33:59;;;;;;;0.40;0.40;;;;;;;;;;5069739;28;20025;-79
2023/08/09 13:36:26;;;;;;;0.28;0.25;;;;;;;;;;5062676;28;20016;-80
2023/08/09 13:38:52;;;;;;;1.17;0.45;;;;;;;;;;5070433;28;20040;-80
2023/08/09 13:41:18;;;;;;;0.40;0.28;;;;;;;;;;5061859;28;20071;-81
2023/08/09 13:43:44;;;;;;;1.25;0.28;;;;;;;;;;5064186;28;20028;-80
2023/08/09 13:46:10;;;;;;;0.30;0.30;;;;;;;;;;5061269;28;20032;-80
2023/08/09 13:48:40;;;;;;;2.45;0.50;;;;;;;;;;5049531;28;20025;-80
2023/08/09 13:51:06;;;;;;;2.55;0.30;;;;;;;;;;5064217;28;20021;-80
2023/08/09 13:53:32;;;;;;;3.00;0.40;;;;;;;;;;5063592;28;20018;-80
2023/08/09 13:55:58;;;;;;;0.40;0.40;;;;;;;;;;5076127;28;20021;-80
2023/08/09 13:58:24;;;;;;;1.90;0.38;;;;;;;;;;5068767;28;20031;-80
2023/08/09 14:00:50;;;;;;;0.38;0.30;;;;;;;;;;5055602;28;20044;-80
2023/08/09 14:03:16;;;;;;;0.82;0.45;;;;;;;;;;5074782;28;20036;-80
2023/08/09 14:05:42;;;;;;;0.50;0.47;;;;;;;;;;5070150;28;20020;-80
2023/08/09 14:08:08;;;;;;;1.48;0.50;;;;;;;;;;5064081;28;20047;-80
2023/08/09 14:10:34;;;;;;;0.65;0.47;;;;;;;;;;5061489;28;20024;-80
2023/08/09 14:13:00;;;;;;;0.40;0.40;;;;;;;;;;5079616;28;20016;-80
2023/08/09 14:15:26;;;;;;;0.47;0.30;;;;;;;;;;5070570;28;20025;-79
2023/08/09 14:17:52;;;;;;;0.32;0.32;;;;;;;;;;5056605;28;20589;-80
2023/08/09 14:20:19;;;;;;;0.40;0.40;;;;;;;;;;5070050;28;20119;-80
2023/08/09 14:22:47;;;;;;;4.90;0.43;;;;;;;;;;5076278;28;20047;-79
2023/08/09 14:25:13;;;;;;;0.57;0.40;;;;;;;;;;5063603;28;20029;-79
2023/08/09 14:27:39;;;;;;;1.00;0.68;;;;;;;;;;5052812;28;20036;-79
2023/08/09 14:30:05;;;;;;;0.80;0.60;;;;;;;;;;5079395;28;20031;-79
2023/08/09 14:32:31;;;;;;;0.95;0.40;;;;;;;;;;5071033;28;20024;-79
2023/08/09 14:34:57;;;;;;;0.32;0.30;;;;;;;;;;5064440;28;20086;-79
2023/08/09 14:37:23;;;;;;;0.70;0.50;;;;;;;;;;5060389;28;20047;-78
2023/08/09 14:39:49;;;;;;;0.65;0.25;;;;;;;;;;5068794;28;20025;-79
2023/08/09 14:42:15;;;;;;;0.45;0.45;;;;;;;;;;5063943;28;20024;-79